Time;durP1;ratioP1;P1;durP2;ratioP2;P2;SDS_P1;SDS_P2;PMS_P1;PMS_P2;Temp;Humidity;BMP_temperature;BMP_pressure;BME280_temperature;BME280_humidity;BME280_pressure;Samples;Min_cycle;Max_cycle;Signal;HPM_P1;HPM_P2
2023/04/15 00:01:54;;;;;;;8.40;8.10;;;20.50;51.40;;;;;;5088186;28;20462;-61
2023/04/15 00:04:21;;;;;;;8.07;7.87;;;20.50;51.40;;;;;;5095186;28;20477;-62
2023/04/15 00:06:51;;;;;;;8.43;8.23;;;20.40;51.40;;;;;;5082107;28;20866;-62
2023/04/15 00:09:20;;;;;;;8.30;8.10;;;20.40;51.40;;;;;;5084448;28;20542;-62
2023/04/15 00:11:47;;;;;;;8.73;8.53;;;20.40;51.40;;;;;;5076754;28;20489;-62
2023/04/15 00:14:14;;;;;;;9.03;8.83;;;20.40;51.50;;;;;;5095005;28;20493;-60
2023/04/15 00:16:41;;;;;;;8.53;8.30;;;20.40;51.50;;;;;;5093163;28;20821;-61
2023/04/15 00:19:08;;;;;;;8.83;8.63;;;20.40;51.60;;;;;;5087696;28;20883;-62
2023/04/15 00:21:35;;;;;;;8.43;8.23;;;20.40;51.60;;;;;;5083511;28;20475;-62
2023/04/15 00:24:02;;;;;;;8.30;8.10;;;20.40;51.60;;;;;;5074677;28;20510;-61
2023/04/15 00:26:30;;;;;;;9.20;8.90;;;20.40;51.60;;;;;;5090604;28;20442;-61
2023/04/15 00:28:57;;;;;;;8.73;8.53;;;20.30;51.60;;;;;;5081521;28;20904;-61
2023/04/15 00:31:24;;;;;;;8.53;8.33;;;20.30;51.60;;;;;;5094757;28;21166;-62
2023/04/15 00:33:52;;;;;;;8.70;8.50;;;20.30;51.70;;;;;;5077189;28;20439;-60
2023/04/15 00:36:18;;;;;;;8.50;8.20;;;20.30;51.70;;;;;;5094606;28;20450;-61
2023/04/15 00:38:46;;;;;;;8.33;8.13;;;20.30;51.70;;;;;;5075096;28;20513;-61
2023/04/15 00:41:12;;;;;;;8.80;8.50;;;20.30;51.70;;;;;;5090377;28;20448;-61
2023/04/15 00:43:41;;;;;;;9.53;9.23;;;20.30;51.70;;;;;;5089012;28;20569;-60
2023/04/15 00:46:09;;;;;;;8.60;8.40;;;20.30;51.60;;;;;;5068955;28;20545;-61
2023/04/15 00:48:37;;;;;;;8.40;8.20;;;20.30;51.70;;;;;;5076572;28;20524;-62
2023/04/15 00:51:06;;;;;;;8.27;8.07;;;20.30;51.70;;;;;;5074022;28;20447;-60
2023/04/15 00:53:32;;;;;;;8.97;8.47;;;20.30;51.70;;;;;;5089504;28;20464;-62
2023/04/15 00:55:59;;;;;;;8.50;8.30;;;20.20;51.70;;;;;;5093931;28;20483;-61
2023/04/15 00:58:27;;;;;;;8.53;8.33;;;20.20;51.70;;;;;;5076597;28;20490;-62
2023/04/15 01:00:56;;;;;;;8.30;8.10;;;20.20;51.70;;;;;;5086820;28;20454;-61
2023/04/15 01:03:24;;;;;;;8.60;8.30;;;20.20;51.80;;;;;;5087747;28;20565;-62
2023/04/15 01:05:51;;;;;;;8.87;8.57;;;20.20;51.70;;;;;;5094228;28;20446;-62
2023/04/15 01:08:18;;;;;;;9.50;9.20;;;20.20;51.80;;;;;;5078529;28;20505;-61
2023/04/15 01:10:45;;;;;;;9.33;9.03;;;20.20;51.80;;;;;;5073727;28;20546;-61
2023/04/15 01:13:12;;;;;;;8.30;8.03;;;20.20;51.80;;;;;;5077783;28;20531;-61
2023/04/15 01:15:39;;;;;;;8.60;8.40;;;20.20;51.70;;;;;;5071930;28;20547;-62
2023/04/15 01:18:08;;;;;;;8.03;7.83;;;20.20;51.80;;;;;;5063774;28;20528;-62
2023/04/15 01:20:35;;;;;;;8.77;8.33;;;20.20;51.80;;;;;;5080888;28;20491;-59
2023/04/15 01:23:02;;;;;;;8.83;8.43;;;20.20;51.80;;;;;;5090220;28;20506;-60
2023/04/15 01:25:33;;;;;;;8.40;8.20;;;20.20;51.80;;;;;;5075434;28;20479;-62
2023/04/15 01:28:01;;;;;;;8.93;8.50;;;20.10;51.80;;;;;;5089131;28;20501;-60
2023/04/15 01:30:28;;;;;;;8.80;8.60;;;20.10;51.70;;;;;;5092826;28;20523;-61
2023/04/15 01:32:55;;;;;;;8.70;8.40;;;20.10;51.70;;;;;;5090730;28;20439;-61
2023/04/15 01:35:22;;;;;;;8.27;8.07;;;20.10;51.70;;;;;;5093447;28;20529;-61
2023/04/15 01:37:50;;;;;;;8.90;8.60;;;20.10;51.80;;;;;;5081671;28;20486;-60
2023/04/15 01:40:17;;;;;;;8.17;7.97;;;20.10;51.80;;;;;;5073247;28;20447;-61
2023/04/15 01:42:45;;;;;;;8.50;8.30;;;20.10;51.80;;;;;;5079019;28;20534;-61
2023/04/15 01:45:12;;;;;;;8.40;8.20;;;20.10;51.80;;;;;;5088990;28;20464;-62
2023/04/15 01:47:39;;;;;;;8.73;8.17;;;20.00;51.70;;;;;;5083221;28;20550;-62
2023/04/15 01:50:07;;;;;;;9.10;8.80;;;20.00;51.70;;;;;;5085910;28;20533;-62
2023/04/15 01:52:34;;;;;;;8.67;8.33;;;20.00;51.70;;;;;;5091081;28;20521;-62
2023/04/15 01:55:01;;;;;;;8.53;8.33;;;20.00;51.70;;;;;;5084880;28;20531;-60
2023/04/15 01:57:28;;;;;;;8.73;8.53;;;20.00;51.70;;;;;;5083845;28;20501;-62
2023/04/15 01:59:56;;;;;;;8.20;8.00;;;20.00;51.70;;;;;;5077363;28;20882;-61
2023/04/15 02:02:23;;;;;;;8.37;7.97;;;20.00;51.70;;;;;;5087717;28;20534;-61
2023/04/15 02:04:50;;;;;;;8.37;8.17;;;20.00;51.70;;;;;;5072599;28;20507;-62
2023/04/15 02:07:17;;;;;;;8.13;7.93;;;20.00;51.70;;;;;;5078442;28;20458;-61
2023/04/15 02:09:44;;;;;;;8.20;8.00;;;20.00;51.70;;;;;;5092772;28;20438;-62
2023/04/15 02:12:12;;;;;;;8.03;7.83;;;20.00;51.70;;;;;;5088880;28;20443;-62
2023/04/15 02:14:39;;;;;;;8.53;8.33;;;20.00;51.70;;;;;;5082891;28;20444;-62
2023/04/15 02:17:07;;;;;;;8.30;8.10;;;20.00;51.70;;;;;;5081267;28;20502;-62
2023/04/15 02:19:34;;;;;;;8.50;8.20;;;19.90;51.70;;;;;;5092574;28;20521;-60
2023/04/15 02:22:01;;;;;;;8.40;8.20;;;19.90;51.70;;;;;;5089846;28;20474;-62
2023/04/15 02:24:29;;;;;;;8.17;7.97;;;19.90;51.70;;;;;;5086019;28;20562;-61
2023/04/15 02:26:56;;;;;;;8.20;7.90;;;19.90;51.70;;;;;;5078086;28;20555;-62
2023/04/15 02:29:23;;;;;;;7.97;7.77;;;20.00;51.80;;;;;;5081887;28;20482;-62
2023/04/15 02:31:50;;;;;;;8.63;8.33;;;19.90;51.70;;;;;;5085800;28;20837;-61
2023/04/15 02:34:18;;;;;;;8.10;7.90;;;19.90;51.70;;;;;;5072954;28;20501;-61
2023/04/15 02:36:46;;;;;;;8.67;8.37;;;19.90;51.70;;;;;;5071972;28;20478;-62
2023/04/15 02:39:15;;;;;;;8.30;8.00;;;19.90;51.70;;;;;;5092313;28;20442;-61
2023/04/15 02:41:42;;;;;;;8.27;8.07;;;19.90;51.70;;;;;;5078063;28;20447;-59
2023/04/15 02:44:11;;;;;;;8.67;8.37;;;19.90;51.70;;;;;;5088244;28;20482;-60
2023/04/15 02:46:40;;;;;;;8.47;8.17;;;19.90;51.70;;;;;;5087229;28;20484;-62
2023/04/15 02:49:07;;;;;;;8.53;8.23;;;19.80;51.60;;;;;;5074765;28;20508;-62
2023/04/15 02:51:35;;;;;;;8.40;8.20;;;19.80;51.60;;;;;;5091952;28;20454;-61
2023/04/15 02:54:02;;;;;;;8.67;8.37;;;19.90;51.70;;;;;;5088529;28;20439;-60
2023/04/15 02:56:30;;;;;;;8.10;7.90;;;19.80;51.60;;;;;;5091910;28;20492;-61
2023/04/15 02:58:57;;;;;;;8.00;7.80;;;19.80;51.60;;;;;;5074620;28;20548;-61
2023/04/15 03:01:25;;;;;;;8.30;8.10;;;19.80;51.60;;;;;;5086115;28;20479;-62
2023/04/15 03:03:51;;;;;;;8.60;8.30;;;19.90;51.70;;;;;;5086212;28;20477;-60
2023/04/15 03:06:18;;;;;;;7.83;7.63;;;19.90;51.70;;;;;;5091989;28;20512;-61
2023/04/15 03:08:47;;;;;;;8.30;8.10;;;19.80;51.60;;;;;;5086562;28;20478;-62
2023/04/15 03:11:15;;;;;;;8.23;8.03;;;19.80;51.60;;;;;;5075273;28;20933;-61
2023/04/15 03:13:42;;;;;;;8.50;8.27;;;19.80;51.70;;;;;;5074861;28;20492;-61
2023/04/15 03:16:09;;;;;;;8.40;8.20;;;19.80;51.70;;;;;;5083339;28;20952;-61
2023/04/15 03:18:36;;;;;;;9.30;8.93;;;19.80;51.70;;;;;;5075028;28;20875;-60
2023/04/15 03:21:03;;;;;;;8.30;8.10;;;19.80;51.70;;;;;;5084483;28;21103;-60
2023/04/15 03:23:31;;;;;;;8.30;8.00;;;19.80;51.70;;;;;;5075564;28;20470;-61
2023/04/15 03:26:02;;;;;;;8.80;8.50;;;19.80;51.70;;;;;;5078949;28;20529;-59
2023/04/15 03:28:29;;;;;;;8.80;8.57;;;19.80;51.70;;;;;;5076532;28;20491;-61
2023/04/15 03:30:56;;;;;;;8.47;8.27;;;19.80;51.70;;;;;;5087633;28;20468;-61
2023/04/15 03:33:22;;;;;;;7.93;7.73;;;19.80;51.70;;;;;;5076632;28;20481;-61
2023/04/15 03:35:51;;;;;;;9.17;8.87;;;19.80;51.70;;;;;;5082129;28;20491;-60
2023/04/15 03:38:18;;;;;;;8.27;8.07;;;19.80;51.70;;;;;;5083627;28;20502;-59
2023/04/15 03:40:46;;;;;;;8.80;8.60;;;19.70;51.60;;;;;;5091476;28;20493;-61
2023/04/15 03:43:14;;;;;;;9.10;8.80;;;19.70;51.60;;;;;;5078331;28;20482;-61
2023/04/15 03:45:41;;;;;;;8.17;7.97;;;19.70;51.50;;;;;;5087771;28;20517;-60
2023/04/15 03:48:08;;;;;;;8.90;8.60;;;19.70;51.50;;;;;;5079476;28;20570;-61
2023/04/15 03:50:35;;;;;;;8.50;8.30;;;19.70;51.50;;;;;;5078055;28;20496;-61
2023/04/15 03:53:02;;;;;;;8.93;8.53;;;19.70;51.60;;;;;;5081374;28;20475;-60
2023/04/15 03:55:29;;;;;;;9.13;8.67;;;19.70;51.60;;;;;;5078450;28;20485;-61
2023/04/15 03:57:56;;;;;;;8.83;8.53;;;19.70;51.60;;;;;;5081237;28;20455;-61
2023/04/15 04:00:24;;;;;;;8.67;8.47;;;19.70;51.60;;;;;;5073626;28;20467;-59
2023/04/15 04:02:51;;;;;;;8.50;8.30;;;19.70;51.60;;;;;;5086281;28;20443;-61
2023/04/15 04:05:18;;;;;;;8.73;8.43;;;19.70;51.60;;;;;;5086280;28;20558;-61
2023/04/15 04:07:45;;;;;;;8.40;8.20;;;19.70;51.70;;;;;;5078158;28;20549;-61
2023/04/15 04:10:12;;;;;;;8.63;8.43;;;19.70;51.60;;;;;;5079195;28;20447;-60
2023/04/15 04:12:38;;;;;;;8.60;8.40;;;19.70;51.70;;;;;;5077290;28;20558;-60
2023/04/15 04:15:06;;;;;;;9.23;8.93;;;19.60;51.60;;;;;;5088860;28;21015;-62
2023/04/15 04:17:35;;;;;;;9.53;9.17;;;19.60;51.60;;;;;;5077199;28;20486;-61
2023/04/15 04:20:02;;;;;;;9.10;8.80;;;19.60;51.60;;;;;;5077444;28;20493;-61
2023/04/15 04:22:29;;;;;;;8.63;8.43;;;19.60;51.60;;;;;;5087131;28;20517;-61
2023/04/15 04:24:58;;;;;;;8.47;8.27;;;19.60;51.60;;;;;;5075204;28;21008;-61
2023/04/15 04:27:25;;;;;;;8.53;8.33;;;19.60;51.60;;;;;;5086010;28;20489;-61
2023/04/15 04:29:51;;;;;;;9.20;8.90;;;19.60;51.70;;;;;;5080610;28;20531;-62
2023/04/15 04:32:18;;;;;;;8.43;8.23;;;19.60;51.70;;;;;;5080742;28;20508;-60
2023/04/15 04:34:47;;;;;;;9.10;8.80;;;19.60;51.70;;;;;;5094617;28;20481;-61
2023/04/15 04:37:14;;;;;;;8.17;7.97;;;19.60;51.70;;;;;;5082830;28;20475;-59
2023/04/15 04:39:41;;;;;;;8.83;8.53;;;19.60;51.80;;;;;;5088986;28;20470;-60
2023/04/15 04:42:07;;;;;;;8.10;7.80;;;19.60;51.80;;;;;;5089126;28;20527;-60
2023/04/15 04:44:34;;;;;;;8.43;8.23;;;19.60;51.80;;;;;;5074240;28;20471;-61
2023/04/15 04:47:01;;;;;;;8.60;8.40;;;19.60;51.80;;;;;;5076827;28;20546;-61
2023/04/15 04:49:28;;;;;;;8.80;8.53;;;19.60;51.80;;;;;;5094402;28;20488;-61
2023/04/15 04:51:57;;;;;;;8.63;8.33;;;19.60;51.80;;;;;;5081888;28;20533;-61
2023/04/15 04:54:24;;;;;;;9.77;9.47;;;19.60;51.80;;;;;;5090109;28;20557;-61
2023/04/15 04:56:51;;;;;;;8.93;8.63;;;19.60;51.90;;;;;;5091706;28;20474;-61
2023/04/15 04:59:18;;;;;;;9.27;9.07;;;19.60;51.90;;;;;;5075211;28;20531;-61
2023/04/15 05:01:44;;;;;;;8.80;8.60;;;19.60;51.90;;;;;;5086071;28;20478;-61
2023/04/15 05:04:11;;;;;;;8.40;8.20;;;19.60;51.80;;;;;;5077643;28;20477;-61
2023/04/15 05:06:38;;;;;;;9.03;8.73;;;19.60;51.90;;;;;;5083414;28;20530;-60
2023/04/15 05:09:06;;;;;;;8.20;8.00;;;19.60;51.90;;;;;;5092219;28;20541;-60
2023/04/15 05:11:33;;;;;;;8.23;8.03;;;19.60;51.90;;;;;;5092840;28;20453;-61
2023/04/15 05:14:01;;;;;;;8.67;8.47;;;19.60;51.90;;;;;;5073658;28;20467;-61
2023/04/15 05:16:28;;;;;;;9.13;8.93;;;19.60;51.90;;;;;;5080906;28;20961;-62
2023/04/15 05:18:55;;;;;;;9.90;9.60;;;19.60;51.90;;;;;;5090831;28;20490;-61
2023/04/15 05:21:22;;;;;;;10.80;10.30;;;19.60;51.90;;;;;;5082566;28;20581;-61
2023/04/15 05:23:49;;;;;;;10.37;9.40;;;19.60;51.90;;;;;;5087999;28;20478;-61
2023/04/15 05:26:17;;;;;;;10.03;9.73;;;19.50;51.80;;;;;;5077762;28;20450;-61
2023/04/15 05:28:45;;;;;;;10.17;9.87;;;19.60;51.90;;;;;;5088911;28;20469;-61
2023/04/15 05:31:11;;;;;;;10.03;9.73;;;19.60;52.50;;;;;;5078624;28;20941;-62
2023/04/15 05:33:39;;;;;;;9.70;9.40;;;19.60;51.90;;;;;;5084069;28;20467;-60
2023/04/15 05:36:06;;;;;;;10.63;10.23;;;19.50;51.80;;;;;;5073263;28;20483;-61
2023/04/15 05:38:33;;;;;;;10.63;10.33;;;19.50;51.90;;;;;;5138019;22;20865;-56
2023/04/15 05:41:00;;;;;;;10.10;9.80;;;19.50;51.80;;;;;;5098321;28;20470;-59
2023/04/15 05:43:29;;;;;;;10.60;10.30;;;19.50;51.80;;;;;;5109433;28;20473;-55
2023/04/15 05:45:56;;;;;;;10.10;9.80;;;19.50;51.80;;;;;;5113612;28;20479;-58
2023/04/15 05:48:23;;;;;;;10.90;10.40;;;19.50;51.80;;;;;;5104447;28;21008;-57
2023/04/15 05:50:50;;;;;;;11.23;10.83;;;19.50;51.70;;;;;;5111938;28;20528;-61
2023/04/15 05:53:17;;;;;;;11.50;11.20;;;19.50;51.80;;;;;;5098911;28;20478;-62
2023/04/15 05:55:53;;;;;;;11.87;11.47;;;19.60;52.80;;;;;;5109441;28;20496;-61
2023/04/15 05:58:20;;;;;;;12.77;12.17;;;19.60;53.40;;;;;;5093197;28;20515;-61
2023/04/15 06:01:01;;;;;;;12.17;11.77;;;19.70;53.80;;;;;;5096920;28;20445;-55
2023/04/15 06:03:33;;;;;;;11.90;11.50;;;19.90;53.90;;;;;;5102692;28;20528;-54
2023/04/15 06:06:00;;;;;;;11.63;11.33;;;20.00;53.80;;;;;;5092972;28;20499;-58
2023/04/15 06:08:27;;;;;;;12.13;11.73;;;20.10;53.90;;;;;;5100439;28;20469;-60
2023/04/15 06:10:55;;;;;;;12.80;11.90;;;20.30;53.90;;;;;;5095824;28;20967;-61
2023/04/15 06:13:22;;;;;;;11.53;11.23;;;20.30;53.80;;;;;;5106121;28;20857;-59
2023/04/15 06:15:53;;;;;;;12.00;11.70;;;20.40;53.60;;;;;;5092196;28;20513;-59
2023/04/15 06:18:20;;;;;;;12.30;11.80;;;20.50;54.40;;;;;;5092040;28;20459;-60
2023/04/15 06:20:47;;;;;;;11.87;11.57;;;20.60;54.60;;;;;;5112078;28;20487;-61
2023/04/15 06:23:14;;;;;;;12.27;11.90;;;20.60;54.40;;;;;;5098752;28;20438;-58
2023/04/15 06:25:41;;;;;;;12.47;12.03;;;20.70;54.40;;;;;;5102743;28;20438;-58
2023/04/15 06:28:11;;;;;;;11.63;11.23;;;20.80;54.50;;;;;;5098872;28;20855;-60
2023/04/15 06:30:40;;;;;;;17.67;17.07;;;20.80;54.10;;;;;;5096582;28;20449;-60
2023/04/15 06:33:18;;;;;;;10.20;9.90;;;20.90;53.40;;;;;;5097230;28;20952;-58
2023/04/15 06:35:49;;;;;;;10.27;9.90;;;21.00;53.30;;;;;;5112750;28;20580;-58
2023/04/15 06:38:20;;;;;;;10.03;9.63;;;21.00;52.80;;;;;;5112391;28;20917;-56
2023/04/15 06:40:49;;;;;;;10.40;10.20;;;21.10;52.70;;;;;;5112534;28;20511;-55
2023/04/15 06:43:17;;;;;;;11.23;10.93;;;21.10;53.10;;;;;;5110890;28;20469;-56
2023/04/15 06:45:44;;;;;;;10.70;10.40;;;21.20;54.00;;;;;;5112522;28;20846;-56
2023/04/15 06:48:12;;;;;;;11.30;10.90;;;21.10;53.40;;;;;;5105080;28;20913;-52
2023/04/15 06:50:40;;;;;;;10.17;9.83;;;21.20;53.50;;;;;;5092010;28;20481;-55
2023/04/15 06:53:09;;;;;;;10.63;10.23;;;21.20;53.10;;;;;;5105249;28;20457;-53
2023/04/15 06:55:36;;;;;;;9.90;9.40;;;21.20;53.20;;;;;;5112376;28;20512;-60
2023/04/15 06:58:03;;;;;;;9.77;9.20;;;21.30;52.70;;;;;;5111940;28;20496;-56
2023/04/15 07:00:32;;;;;;;9.37;9.17;;;21.40;52.60;;;;;;5112090;28;20532;-60
2023/04/15 07:03:02;;;;;;;9.57;9.27;;;21.40;52.60;;;;;;5110455;28;20951;-58
2023/04/15 07:05:32;;;;;;;9.60;9.30;;;21.40;53.20;;;;;;5112215;28;20442;-57
2023/04/15 07:08:00;;;;;;;7.90;7.60;;;21.40;53.00;;;;;;5104795;28;20441;-59
2023/04/15 07:10:28;;;;;;;9.80;9.40;;;21.40;53.60;;;;;;5091827;28;20450;-54
2023/04/15 07:12:56;;;;;;;9.87;9.57;;;21.50;54.10;;;;;;5091504;28;20530;-57
2023/04/15 07:15:23;;;;;;;10.60;10.30;;;21.60;53.20;;;;;;5092106;28;20568;-57
2023/04/15 07:17:50;;;;;;;10.00;9.70;;;21.60;52.60;;;;;;5091795;28;20466;-58
2023/04/15 07:20:17;;;;;;;9.90;9.60;;;21.60;52.20;;;;;;5093056;28;20588;-58
2023/04/15 07:22:45;;;;;;;10.00;9.80;;;21.60;52.00;;;;;;5091758;28;20481;-59
2023/04/15 07:25:12;;;;;;;10.20;9.90;;;21.70;52.50;;;;;;5091584;28;20492;-61
2023/04/15 07:27:41;;;;;;;10.83;10.43;;;21.70;52.30;;;;;;5092526;28;20545;-60
2023/04/15 07:30:09;;;;;;;9.60;9.40;;;21.70;52.20;;;;;;5095205;28;20445;-61
2023/04/15 07:32:36;;;;;;;10.40;10.00;;;21.70;52.30;;;;;;5112124;28;20860;-58
2023/04/15 07:35:03;;;;;;;9.90;9.60;;;21.70;51.60;;;;;;5111935;28;21072;-57
2023/04/15 07:37:31;;;;;;;9.60;9.40;;;21.70;51.40;;;;;;5099488;28;20470;-60
2023/04/15 07:39:59;;;;;;;10.03;9.70;;;21.70;51.40;;;;;;5091511;28;20446;-59
2023/04/15 07:42:26;;;;;;;10.53;9.90;;;21.70;50.70;;;;;;5091485;28;20447;-59
2023/04/15 07:44:53;;;;;;;11.03;10.53;;;21.60;49.70;;;;;;5091870;28;20477;-58
2023/04/15 07:47:20;;;;;;;10.20;9.90;;;21.70;49.90;;;;;;5101585;28;20869;-57
2023/04/15 07:49:48;;;;;;;10.50;10.20;;;21.70;50.50;;;;;;5111947;28;20437;-60
2023/04/15 07:52:15;;;;;;;9.47;9.17;;;21.80;50.70;;;;;;5112239;28;20789;-59
2023/04/15 07:54:42;;;;;;;9.87;9.57;;;21.80;50.70;;;;;;5111773;28;20524;-60
2023/04/15 07:57:10;;;;;;;10.20;10.00;;;21.80;50.20;;;;;;5110046;28;20498;-58
2023/04/15 07:59:37;;;;;;;9.80;9.50;;;21.80;50.20;;;;;;5111751;28;20875;-54
2023/04/15 08:02:04;;;;;;;10.20;9.60;;;21.90;50.20;;;;;;5111711;28;20470;-55
2023/04/15 08:04:32;;;;;;;10.33;9.80;;;21.90;50.50;;;;;;5115289;28;20476;-56
2023/04/15 08:06:59;;;;;;;10.00;9.70;;;21.90;50.80;;;;;;5106005;28;20443;-56
2023/04/15 08:09:26;;;;;;;9.23;8.93;;;21.90;51.30;;;;;;5095116;28;20501;-55
2023/04/15 08:11:53;;;;;;;11.70;9.67;;;21.90;51.50;;;;;;5095035;28;20445;-57
2023/04/15 08:14:21;;;;;;;9.85;9.18;;;21.90;51.80;;;;;;5095105;28;20446;-56
2023/04/15 08:16:48;;;;;;;8.80;8.60;;;21.90;52.30;;;;;;5095983;28;20311;-57
2023/04/15 08:19:16;;;;;;;9.90;9.30;;;21.90;52.30;;;;;;5094796;28;20498;-58
2023/04/15 08:21:42;;;;;;;9.33;8.97;;;22.00;52.20;;;;;;5094967;28;20457;-58
2023/04/15 08:24:10;;;;;;;9.30;9.00;;;22.00;52.10;;;;;;5094810;28;20887;-57
2023/04/15 08:26:37;;;;;;;9.37;9.00;;;22.00;52.20;;;;;;5114140;28;20510;-56
2023/04/15 08:29:04;;;;;;;10.00;9.53;;;22.00;52.20;;;;;;5115007;28;20556;-56
2023/04/15 08:31:32;;;;;;;9.23;8.83;;;22.10;52.30;;;;;;5115026;28;20529;-58
2023/04/15 08:33:59;;;;;;;11.37;10.83;;;22.10;52.30;;;;;;5115162;28;20498;-57
2023/04/15 08:36:26;;;;;;;9.50;9.17;;;22.20;52.30;;;;;;5097111;28;20922;-57
2023/04/15 08:38:53;;;;;;;11.60;10.90;;;22.20;52.40;;;;;;5094162;28;20477;-55
2023/04/15 08:41:23;;;;;;;11.07;10.20;;;22.20;52.50;;;;;;5094638;28;20983;-57
2023/04/15 08:43:54;;;;;;;12.43;11.33;;;22.20;53.90;;;;;;5094481;28;20438;-54
2023/04/15 08:46:21;;;;;;;10.57;9.87;;;22.00;55.30;;;;;;5094489;28;20906;-55
2023/04/15 08:48:51;;;;;;;11.03;10.43;;;21.60;51.00;;;;;;5095204;28;20494;-57
2023/04/15 08:51:18;;;;;;;10.07;9.37;;;21.30;49.70;;;;;;5094367;28;20525;-54
2023/04/15 08:53:46;;;;;;;10.50;9.90;;;21.10;48.50;;;;;;5094365;28;20893;-56
2023/04/15 08:56:15;;;;;;;10.00;9.60;;;20.90;47.50;;;;;;5094127;28;20478;-58
2023/04/15 08:58:43;;;;;;;9.73;9.23;;;20.80;47.10;;;;;;5093941;28;20469;-57
2023/04/15 09:01:12;;;;;;;10.80;10.37;;;20.70;46.80;;;;;;5073878;28;20485;-57
2023/04/15 09:03:39;;;;;;;10.13;9.77;;;20.60;46.40;;;;;;5073944;28;20475;-55
2023/04/15 09:06:08;;;;;;;9.70;9.40;;;20.50;46.30;;;;;;5073781;28;20964;-54
2023/04/15 09:08:35;;;;;;;8.50;8.20;;;20.50;47.00;;;;;;5072832;28;20522;-58
2023/04/15 09:11:02;;;;;;;9.60;9.30;;;20.40;46.70;;;;;;5108248;28;20674;-55
2023/04/15 09:13:29;;;;;;;9.73;9.23;;;20.40;46.30;;;;;;5114705;28;20788;-58
2023/04/15 09:15:57;;;;;;;9.30;8.83;;;20.70;46.40;;;;;;5113608;28;21011;-59
2023/04/15 09:18:31;;;;;;;9.47;9.17;;;20.90;46.40;;;;;;5112151;28;20867;-59
2023/04/15 09:21:05;;;;;;;8.87;8.60;;;20.90;46.20;;;;;;5113761;28;20468;-61
2023/04/15 09:23:34;;;;;;;9.43;9.20;;;21.00;46.50;;;;;;5114189;28;20448;-60
2023/04/15 09:26:01;;;;;;;8.80;8.60;;;21.10;46.70;;;;;;5113670;28;20446;-61
2023/04/15 09:28:29;;;;;;;8.40;8.20;;;21.20;46.50;;;;;;5113487;28;20458;-61
2023/04/15 09:30:56;;;;;;;8.70;8.40;;;21.20;45.90;;;;;;5114110;28;20441;-60
2023/04/15 09:33:25;;;;;;;9.43;9.13;;;21.20;46.40;;;;;;5113919;28;20446;-60
2023/04/15 09:35:59;;;;;;;9.50;9.17;;;21.20;46.30;;;;;;5113763;28;20840;-60
2023/04/15 09:38:27;;;;;;;9.50;9.20;;;21.20;45.80;;;;;;5113406;28;20473;-62
2023/04/15 09:40:56;;;;;;;8.80;8.60;;;21.10;45.60;;;;;;5113807;28;20480;-61
2023/04/15 09:43:24;;;;;;;8.90;8.70;;;21.00;45.20;;;;;;5113737;28;20449;-59
2023/04/15 09:45:53;;;;;;;9.23;8.97;;;20.90;45.00;;;;;;5113752;28;20434;-61
2023/04/15 09:48:22;;;;;;;8.67;8.43;;;20.80;44.90;;;;;;5113358;28;20496;-60
2023/04/15 09:50:50;;;;;;;8.77;8.57;;;20.80;45.30;;;;;;5113559;28;20477;-59
2023/04/15 09:53:19;;;;;;;9.40;9.10;;;20.70;44.90;;;;;;5113547;28;20437;-61
2023/04/15 09:55:47;;;;;;;9.30;9.10;;;20.70;45.30;;;;;;5113469;28;21061;-62
2023/04/15 09:58:22;;;;;;;9.17;8.87;;;20.70;45.70;;;;;;5113135;28;20489;-62
2023/04/15 10:00:50;;;;;;;8.43;8.23;;;20.60;45.30;;;;;;5113356;28;20488;-62
2023/04/15 10:03:21;;;;;;;8.40;8.20;;;20.60;45.40;;;;;;5113306;28;20536;-61
2023/04/15 10:05:49;;;;;;;8.00;7.80;;;20.50;45.50;;;;;;5113366;28;20441;-60
2023/04/15 10:08:19;;;;;;;8.60;8.40;;;20.50;45.80;;;;;;5105714;28;20462;-62
2023/04/15 10:10:46;;;;;;;8.13;7.93;;;20.50;45.70;;;;;;5110721;28;20811;-61
2023/04/15 10:13:14;;;;;;;8.53;8.30;;;20.40;45.40;;;;;;5113236;28;20536;-63
2023/04/15 10:15:49;;;;;;;8.80;8.47;;;20.40;46.20;;;;;;5113204;28;20488;-61
2023/04/15 10:18:17;;;;;;;8.70;8.40;;;20.20;45.60;;;;;;5111350;28;20496;-61
2023/04/15 10:20:46;;;;;;;8.90;8.70;;;20.00;45.30;;;;;;5111292;28;20452;-61
2023/04/15 10:23:13;;;;;;;9.40;8.87;;;19.90;45.50;;;;;;5113006;28;20536;-61
2023/04/15 10:25:40;;;;;;;8.80;8.60;;;19.80;45.30;;;;;;5112497;28;20473;-63
2023/04/15 10:28:08;;;;;;;8.80;8.60;;;19.60;45.70;;;;;;5101105;28;20502;-64
2023/04/15 10:30:36;;;;;;;9.57;9.17;;;19.60;46.10;;;;;;5092511;28;20453;-64
2023/04/15 10:33:05;;;;;;;9.43;9.10;;;19.60;46.00;;;;;;5096733;28;20477;-65
2023/04/15 10:35:33;;;;;;;9.30;8.97;;;19.50;45.70;;;;;;5105335;28;20454;-64
2023/04/15 10:38:00;;;;;;;9.03;8.73;;;19.40;45.70;;;;;;5103611;28;20473;-64
2023/04/15 10:40:30;;;;;;;10.60;10.20;;;19.50;45.80;;;;;;5112611;28;20477;-64
2023/04/15 10:42:58;;;;;;;9.90;9.60;;;19.50;46.10;;;;;;5113292;28;20445;-64
2023/04/15 10:45:36;;;;;;;9.23;8.97;;;19.50;46.20;;;;;;5112589;28;20472;-64
2023/04/15 10:48:07;;;;;;;9.03;8.77;;;19.40;45.90;;;;;;5111504;28;20503;-63
2023/04/15 10:50:34;;;;;;;8.73;8.53;;;19.30;46.10;;;;;;5112642;28;20488;-64
2023/04/15 10:53:04;;;;;;;9.57;9.27;;;19.30;46.40;;;;;;5112734;28;20868;-63
2023/04/15 10:55:33;;;;;;;8.80;8.60;;;19.30;46.40;;;;;;5112389;28;20441;-63
2023/04/15 10:58:01;;;;;;;9.57;9.27;;;19.40;46.80;;;;;;5108633;28;20462;-63
2023/04/15 11:00:30;;;;;;;8.93;8.63;;;19.40;47.10;;;;;;5095089;28;20445;-64
2023/04/15 11:02:58;;;;;;;9.73;9.30;;;19.40;46.80;;;;;;5112255;28;20528;-62
2023/04/15 11:05:51;;;;;;;9.27;8.97;;;19.30;46.70;;;;;;5112306;28;20445;-63
2023/04/15 11:08:18;;;;;;;9.30;8.80;;;19.40;47.70;;;;;;5106394;28;20897;-65
2023/04/15 11:10:54;;;;;;;8.80;8.60;;;19.30;47.40;;;;;;5092015;28;20503;-58
2023/04/15 11:13:30;;;;;;;9.30;9.00;;;19.20;47.80;;;;;;5091910;28;20814;-58
2023/04/15 11:16:01;;;;;;;8.30;8.10;;;19.20;47.40;;;;;;5091770;28;20924;-57
2023/04/15 11:18:30;;;;;;;8.65;8.32;;;19.00;47.30;;;;;;5101987;28;20443;-60
2023/04/15 11:21:01;;;;;;;7.40;7.10;;;19.00;47.90;;;;;;5111956;28;20802;-59
2023/04/15 11:23:30;;;;;;;8.67;8.47;;;19.10;47.40;;;;;;5113254;28;20203;-58
2023/04/15 11:25:58;;;;;;;7.30;7.10;;;19.20;47.30;;;;;;5107407;28;20440;-61
2023/04/15 11:28:26;;;;;;;13.37;12.47;;;19.20;47.70;;;;;;5091426;28;20216;-60
2023/04/15 11:30:54;;;;;;;22.67;20.10;;;19.20;47.30;;;;;;5091628;28;20446;-60
2023/04/15 11:33:21;;;;;;;45.37;34.57;;;19.20;47.20;;;;;;5091863;28;20790;-59
2023/04/15 11:35:48;;;;;;;37.50;30.40;;;19.30;48.40;;;;;;5107645;28;20503;-58
2023/04/15 11:38:17;;;;;;;25.10;22.60;;;19.20;48.20;;;;;;5113641;28;20995;-58
2023/04/15 11:40:44;;;;;;;20.23;18.57;;;19.20;48.10;;;;;;5116220;28;20828;-59
2023/04/15 11:43:13;;;;;;;17.00;15.80;;;19.10;48.10;;;;;;5116158;28;20445;-57
2023/04/15 11:45:50;;;;;;;16.53;15.20;;;19.20;48.30;;;;;;5114290;28;21007;-58
2023/04/15 11:48:17;;;;;;;15.10;14.20;;;19.00;48.30;;;;;;5115708;28;20479;-57
2023/04/15 11:50:45;;;;;;;10.90;10.43;;;18.90;48.50;;;;;;5108846;28;20442;-56
2023/04/15 11:53:13;;;;;;;11.97;11.37;;;18.80;48.80;;;;;;5095547;28;20851;-55
2023/04/15 11:55:46;;;;;;;9.83;9.43;;;18.90;49.20;;;;;;5109512;28;20476;-57
2023/04/15 11:58:15;;;;;;;9.40;9.00;;;18.90;48.90;;;;;;5115420;28;20477;-56
2023/04/15 12:00:48;;;;;;;9.23;8.93;;;18.90;48.70;;;;;;5115710;28;20444;-51
2023/04/15 12:03:19;;;;;;;8.80;8.60;;;18.70;48.50;;;;;;5115767;28;20468;-55
2023/04/15 12:06:08;;;;;;;9.00;8.70;;;18.90;48.80;;;;;;5100337;28;20481;-53
2023/04/15 12:08:57;;;;;;;8.37;8.07;;;19.20;49.00;;;;;;5094889;28;20497;-53
2023/04/15 12:11:34;;;;;;;7.50;7.20;;;19.40;48.80;;;;;;5094446;28;20433;-58
2023/04/15 12:14:16;;;;;;;8.40;8.10;;;19.50;48.80;;;;;;5095226;28;20807;-52
2023/04/15 12:16:45;;;;;;;8.27;8.07;;;19.60;48.60;;;;;;5101332;28;21030;-54
2023/04/15 12:19:13;;;;;;;9.00;8.70;;;19.70;48.60;;;;;;5115183;28;20427;-56
2023/04/15 12:21:43;;;;;;;8.93;8.63;;;19.80;48.50;;;;;;5115318;28;20628;-58
2023/04/15 12:24:12;;;;;;;7.60;7.40;;;19.90;48.50;;;;;;5114169;28;20880;-58
2023/04/15 12:26:45;;;;;;;7.43;7.13;;;19.90;48.40;;;;;;5094665;28;20530;-55
2023/04/15 12:29:13;;;;;;;7.90;7.70;;;19.90;48.60;;;;;;5094697;28;20535;-57
2023/04/15 12:31:51;;;;;;;7.53;7.23;;;19.90;48.90;;;;;;5094751;28;20447;-52
2023/04/15 12:34:19;;;;;;;7.40;7.10;;;19.90;49.00;;;;;;5095808;28;20450;-57
2023/04/15 12:36:46;;;;;;;6.35;6.15;;;20.00;49.30;;;;;;5093356;28;20456;-58
2023/04/15 12:39:13;;;;;;;7.90;7.70;;;20.00;49.20;;;;;;5094506;28;20314;-59
2023/04/15 12:41:41;;;;;;;8.27;7.97;;;20.10;49.00;;;;;;5094569;28;20526;-58
2023/04/15 12:44:08;;;;;;;8.93;8.53;;;20.10;48.80;;;;;;5108562;28;20536;-59
2023/04/15 12:46:35;;;;;;;9.07;8.73;;;20.10;48.70;;;;;;5114771;28;20451;-57
2023/04/15 12:49:02;;;;;;;11.03;10.33;;;20.10;48.60;;;;;;5114097;28;20507;-58